Time;durP1;ratioP1;P1;durP2;ratioP2;P2;SDS_P1;SDS_P2;PMS_P1;PMS_P2;Temp;Humidity;BMP_temperature;BMP_pressure;BME280_temperature;BME280_humidity;BME280_pressure;Samples;Min_cycle;Max_cycle;Signal;HPM_P1;HPM_P2
2023/08/12 00:01:31;;;;;;;2.50;2.30;;;;;;;;;;5119274;28;20293;-63
2023/08/12 00:03:58;;;;;;;2.58;2.33;;;;;;;;;;5119871;28;20226;-63
2023/08/12 00:06:28;;;;;;;2.67;2.47;;;;;;;;;;5119265;28;20213;-63
2023/08/12 00:08:55;;;;;;;2.70;2.47;;;;;;;;;;5120058;28;20286;-63
2023/08/12 00:11:23;;;;;;;2.78;2.58;;;;;;;;;;5119937;28;20191;-63
2023/08/12 00:13:51;;;;;;;2.63;2.42;;;;;;;;;;5119465;28;20594;-63
2023/08/12 00:16:18;;;;;;;2.88;2.42;;;;;;;;;;5119501;28;20203;-62
2023/08/12 00:18:46;;;;;;;2.70;2.30;;;;;;;;;;5119257;28;20293;-63
2023/08/12 00:21:13;;;;;;;2.75;2.55;;;;;;;;;;5119461;28;20653;-63
2023/08/12 00:23:44;;;;;;;3.05;2.85;;;;;;;;;;5119350;28;20234;-63
2023/08/12 00:26:11;;;;;;;3.65;2.72;;;;;;;;;;5119728;28;20207;-63
2023/08/12 00:28:39;;;;;;;2.60;2.40;;;;;;;;;;5119793;28;20490;-63
2023/08/12 00:31:07;;;;;;;2.95;2.60;;;;;;;;;;5118598;28;20569;-63
2023/08/12 00:33:34;;;;;;;2.60;2.40;;;;;;;;;;5119810;28;20199;-63
2023/08/12 00:36:01;;;;;;;2.55;2.35;;;;;;;;;;5119896;28;20332;-63
2023/08/12 00:38:30;;;;;;;2.53;2.33;;;;;;;;;;5119181;28;20207;-63
2023/08/12 00:40:59;;;;;;;2.60;2.40;;;;;;;;;;5118760;28;20310;-63
2023/08/12 00:43:26;;;;;;;3.20;2.63;;;;;;;;;;5119520;28;20234;-62
2023/08/12 00:45:54;;;;;;;3.03;2.80;;;;;;;;;;5119019;28;20209;-63
2023/08/12 00:48:23;;;;;;;3.20;2.65;;;;;;;;;;5118964;28;20316;-63
2023/08/12 00:50:50;;;;;;;4.75;2.90;;;;;;;;;;5118658;28;20203;-63
2023/08/12 00:53:18;;;;;;;3.08;2.78;;;;;;;;;;5118329;28;20235;-63
2023/08/12 00:55:46;;;;;;;3.65;2.67;;;;;;;;;;5118788;28;20311;-63
2023/08/12 00:58:15;;;;;;;2.63;2.42;;;;;;;;;;5118996;28;20297;-63
2023/08/12 01:00:42;;;;;;;4.28;2.88;;;;;;;;;;5118697;28;20246;-63
2023/08/12 01:03:10;;;;;;;4.70;2.90;;;;;;;;;;5118855;28;20572;-63
2023/08/12 01:05:37;;;;;;;3.08;2.67;;;;;;;;;;5119225;28;20344;-62
2023/08/12 01:08:05;;;;;;;2.90;2.70;;;;;;;;;;5118981;28;20224;-62
2023/08/12 01:10:35;;;;;;;2.60;2.40;;;;;;;;;;5118570;28;20203;-62
2023/08/12 01:13:09;;;;;;;4.10;2.90;;;;;;;;;;5118563;28;20582;-62
2023/08/12 01:15:39;;;;;;;2.85;2.65;;;;;;;;;;5118803;28;20213;-62
2023/08/12 01:18:07;;;;;;;2.90;2.67;;;;;;;;;;5118316;28;20661;-63
2023/08/12 01:20:34;;;;;;;3.03;2.75;;;;;;;;;;5118271;28;20209;-63
2023/08/12 01:23:10;;;;;;;3.95;2.88;;;;;;;;;;5117962;28;20321;-62
2023/08/12 01:25:38;;;;;;;3.95;2.88;;;;;;;;;;5117707;28;20571;-62
2023/08/12 01:28:05;;;;;;;3.15;2.85;;;;;;;;;;5118690;28;20209;-62
2023/08/12 01:30:35;;;;;;;2.72;2.53;;;;;;;;;;5118380;28;20203;-62
2023/08/12 01:33:06;;;;;;;3.65;2.90;;;;;;;;;;5118252;28;20199;-62
2023/08/12 01:35:36;;;;;;;2.80;2.60;;;;;;;;;;5118119;28;20221;-63
2023/08/12 01:38:05;;;;;;;3.10;2.90;;;;;;;;;;5118019;28;20289;-62
2023/08/12 01:40:35;;;;;;;2.83;2.58;;;;;;;;;;5118418;28;20271;-63
2023/08/12 01:43:03;;;;;;;4.15;2.70;;;;;;;;;;5117533;28;20649;-62
2023/08/12 01:45:32;;;;;;;4.25;2.60;;;;;;;;;;5117639;28;20207;-62
2023/08/12 01:48:00;;;;;;;3.25;2.95;;;;;;;;;;5117638;28;20207;-62
2023/08/12 01:50:27;;;;;;;3.00;2.80;;;;;;;;;;5117839;28;20298;-63
2023/08/12 01:52:55;;;;;;;3.03;2.83;;;;;;;;;;5117631;28;20270;-63
2023/08/12 01:55:22;;;;;;;3.40;3.00;;;;;;;;;;5117761;28;20203;-63
2023/08/12 01:57:51;;;;;;;2.97;2.75;;;;;;;;;;5117557;28;20246;-62
2023/08/12 02:00:18;;;;;;;3.10;2.80;;;;;;;;;;5117333;28;20207;-62
2023/08/12 02:02:47;;;;;;;3.63;3.33;;;;;;;;;;5117835;28;20202;-62
2023/08/12 02:05:14;;;;;;;2.90;2.70;;;;;;;;;;5119075;28;20610;-62
2023/08/12 02:07:42;;;;;;;3.13;2.80;;;;;;;;;;5124686;28;20574;-62
2023/08/12 02:10:10;;;;;;;3.08;2.88;;;;;;;;;;5124491;28;20206;-63
2023/08/12 02:12:37;;;;;;;3.22;2.92;;;;;;;;;;5124781;28;20285;-63
2023/08/12 02:15:07;;;;;;;3.00;2.70;;;;;;;;;;5124626;28;20271;-63
2023/08/12 02:17:34;;;;;;;3.10;2.90;;;;;;;;;;5124718;28;20297;-63
2023/08/12 02:20:03;;;;;;;3.30;3.00;;;;;;;;;;5124319;28;20202;-63
2023/08/12 02:22:31;;;;;;;3.10;2.78;;;;;;;;;;5124459;28;20202;-63
2023/08/12 02:24:59;;;;;;;3.05;2.75;;;;;;;;;;5124197;28;20230;-63
2023/08/12 02:27:27;;;;;;;3.50;2.88;;;;;;;;;;5124399;28;20211;-62
2023/08/12 02:29:54;;;;;;;3.20;2.88;;;;;;;;;;5124680;28;20203;-63
2023/08/12 02:32:23;;;;;;;3.38;2.75;;;;;;;;;;5124059;28;20238;-62
2023/08/12 02:34:51;;;;;;;3.20;2.90;;;;;;;;;;5124692;28;20285;-62
2023/08/12 02:37:18;;;;;;;3.00;2.80;;;;;;;;;;5125013;28;20481;-62
2023/08/12 02:39:46;;;;;;;2.92;2.72;;;;;;;;;;5124779;28;20203;-62
2023/08/12 02:42:13;;;;;;;3.53;3.17;;;;;;;;;;5124397;28;20210;-62
2023/08/12 02:44:40;;;;;;;3.30;2.80;;;;;;;;;;5124545;28;20317;-62
2023/08/12 02:47:08;;;;;;;2.78;2.58;;;;;;;;;;5124622;28;20237;-62
2023/08/12 02:49:37;;;;;;;4.30;2.80;;;;;;;;;;5124508;28;20253;-62
2023/08/12 02:52:04;;;;;;;2.85;2.65;;;;;;;;;;5124084;27;20589;-62
2023/08/12 02:54:32;;;;;;;2.78;2.58;;;;;;;;;;5124290;28;20199;-62
2023/08/12 02:56:59;;;;;;;3.35;2.70;;;;;;;;;;5124533;28;20257;-62
2023/08/12 02:59:27;;;;;;;2.95;2.65;;;;;;;;;;5124204;28;20669;-62
2023/08/12 03:01:54;;;;;;;3.05;2.83;;;;;;;;;;5124464;28;20213;-62
2023/08/12 03:04:22;;;;;;;2.97;2.70;;;;;;;;;;5124042;28;20614;-62
2023/08/12 03:06:51;;;;;;;2.95;2.67;;;;;;;;;;5124277;28;20207;-63
2023/08/12 03:09:20;;;;;;;2.97;2.70;;;;;;;;;;5124067;28;20230;-63
2023/08/12 03:11:47;;;;;;;3.22;2.97;;;;;;;;;;5124020;28;20241;-62
2023/08/12 03:14:15;;;;;;;3.20;2.90;;;;;;;;;;5124681;28;20298;-62
2023/08/12 03:16:42;;;;;;;3.30;3.00;;;;;;;;;;5123403;28;20277;-62
2023/08/12 03:19:10;;;;;;;4.55;3.15;;;;;;;;;;5120542;28;20556;-62
2023/08/12 03:21:38;;;;;;;3.40;3.10;;;;;;;;;;5121177;28;20203;-62
2023/08/12 03:24:07;;;;;;;4.20;3.22;;;;;;;;;;5120241;28;20322;-62
2023/08/12 03:26:34;;;;;;;3.25;2.95;;;;;;;;;;5120889;28;20213;-62
2023/08/12 03:29:02;;;;;;;4.05;2.78;;;;;;;;;;5120878;28;20285;-62
2023/08/12 03:31:29;;;;;;;3.17;2.97;;;;;;;;;;5120783;28;20202;-63
2023/08/12 03:33:56;;;;;;;3.65;3.08;;;;;;;;;;5120274;28;20206;-62
2023/08/12 03:36:24;;;;;;;3.35;3.05;;;;;;;;;;5120453;28;20209;-62
2023/08/12 03:38:51;;;;;;;3.45;3.15;;;;;;;;;;5120310;28;20203;-62
2023/08/12 03:41:20;;;;;;;3.88;3.45;;;;;;;;;;5120622;28;20586;-63
2023/08/12 03:43:48;;;;;;;4.63;3.25;;;;;;;;;;5120410;28;20226;-62
2023/08/12 03:46:15;;;;;;;3.58;3.38;;;;;;;;;;5120295;28;20669;-63
2023/08/12 03:48:42;;;;;;;3.50;3.20;;;;;;;;;;5120314;28;20246;-63
2023/08/12 03:51:10;;;;;;;4.85;3.30;;;;;;;;;;5120283;28;20205;-63
2023/08/12 03:53:37;;;;;;;4.90;3.35;;;;;;;;;;5119635;28;20235;-63
2023/08/12 03:56:05;;;;;;;4.15;3.63;;;;;;;;;;5119545;28;20302;-63
2023/08/12 03:58:34;;;;;;;3.47;3.17;;;;;;;;;;5120251;28;20464;-62
2023/08/12 04:01:01;;;;;;;3.30;2.97;;;;;;;;;;5119844;28;20238;-62
2023/08/12 04:03:28;;;;;;;3.40;2.90;;;;;;;;;;5119655;28;20232;-62
2023/08/12 04:05:56;;;;;;;5.30;3.47;;;;;;;;;;5120035;28;20214;-63
2023/08/12 04:08:24;;;;;;;3.38;3.10;;;;;;;;;;5119779;28;20234;-63
2023/08/12 04:10:52;;;;;;;3.72;3.05;;;;;;;;;;5119648;28;20211;-62
2023/08/12 04:13:19;;;;;;;4.25;3.22;;;;;;;;;;5119630;28;20203;-62
2023/08/12 04:15:52;;;;;;;3.40;3.10;;;;;;;;;;5118704;28;20556;-62
2023/08/12 04:18:20;;;;;;;3.22;2.92;;;;;;;;;;5119813;28;20226;-63
2023/08/12 04:20:47;;;;;;;2.92;2.72;;;;;;;;;;5119685;28;20213;-63
2023/08/12 04:23:15;;;;;;;3.40;3.10;;;;;;;;;;5119940;28;20243;-63
2023/08/12 04:25:45;;;;;;;3.50;3.20;;;;;;;;;;5119286;28;20281;-62
2023/08/12 04:28:12;;;;;;;3.40;3.20;;;;;;;;;;5118739;28;20230;-62
2023/08/12 04:30:42;;;;;;;3.78;2.58;;;;;;;;;;5119578;28;20195;-63
2023/08/12 04:33:11;;;;;;;3.28;3.05;;;;;;;;;;5119071;28;20225;-62
2023/08/12 04:35:38;;;;;;;2.92;2.70;;;;;;;;;;5119127;28;20302;-62
2023/08/12 04:38:06;;;;;;;3.25;3.00;;;;;;;;;;5118864;28;20216;-63
2023/08/12 04:40:33;;;;;;;2.90;2.70;;;;;;;;;;5119091;28;20203;-62
2023/08/12 04:43:01;;;;;;;4.03;2.83;;;;;;;;;;5119153;28;20238;-62
2023/08/12 04:45:29;;;;;;;4.20;2.97;;;;;;;;;;5119423;28;20230;-62
2023/08/12 04:47:57;;;;;;;3.10;2.90;;;;;;;;;;5119004;28;20285;-62
2023/08/12 04:50:27;;;;;;;3.25;2.95;;;;;;;;;;5119116;28;20202;-62
2023/08/12 04:52:54;;;;;;;3.13;2.92;;;;;;;;;;5118754;28;20596;-62
2023/08/12 04:55:21;;;;;;;3.38;3.08;;;;;;;;;;5119307;28;20285;-62
2023/08/12 04:57:49;;;;;;;3.50;3.20;;;;;;;;;;5119172;28;20213;-62
2023/08/12 05:00:17;;;;;;;3.40;3.10;;;;;;;;;;5119054;28;20243;-63
2023/08/12 05:02:44;;;;;;;3.45;3.20;;;;;;;;;;5119308;28;20535;-62
2023/08/12 05:05:12;;;;;;;4.30;3.20;;;;;;;;;;5118817;28;20272;-63
2023/08/12 05:07:41;;;;;;;4.38;3.30;;;;;;;;;;5119091;28;20305;-62
2023/08/12 05:10:08;;;;;;;3.50;3.20;;;;;;;;;;5118827;28;20203;-62
2023/08/12 05:12:36;;;;;;;3.90;3.50;;;;;;;;;;5118087;28;20317;-62
2023/08/12 05:15:03;;;;;;;3.80;3.30;;;;;;;;;;5117832;28;20293;-62
2023/08/12 05:17:31;;;;;;;4.60;3.58;;;;;;;;;;5118034;28;20211;-62
2023/08/12 05:19:58;;;;;;;3.85;3.42;;;;;;;;;;5118566;28;20202;-62
2023/08/12 05:22:26;;;;;;;3.40;3.20;;;;;;;;;;5118510;28;20669;-62
2023/08/12 05:24:54;;;;;;;3.45;3.15;;;;;;;;;;5118351;28;20233;-62
2023/08/12 05:27:22;;;;;;;3.75;3.45;;;;;;;;;;5118261;28;20242;-63
2023/08/12 05:29:49;;;;;;;3.92;3.25;;;;;;;;;;5118438;28;20203;-63
2023/08/12 05:32:17;;;;;;;3.85;3.53;;;;;;;;;;5118343;28;20626;-63
2023/08/12 05:34:44;;;;;;;4.88;3.80;;;;;;;;;;5118179;28;20230;-62
2023/08/12 05:37:12;;;;;;;4.05;3.70;;;;;;;;;;5117903;28;20233;-62
2023/08/12 05:39:39;;;;;;;3.92;3.63;;;;;;;;;;5118011;28;20242;-63
2023/08/12 05:42:08;;;;;;;4.63;3.60;;;;;;;;;;5117363;28;20203;-63
2023/08/12 05:44:36;;;;;;;3.85;3.50;;;;;;;;;;5117477;28;20227;-63
2023/08/12 05:47:03;;;;;;;3.95;3.65;;;;;;;;;;5118190;28;20235;-62
2023/08/12 05:49:31;;;;;;;4.38;4.03;;;;;;;;;;5117997;28;20570;-62
2023/08/12 05:51:58;;;;;;;4.00;3.70;;;;;;;;;;5116679;28;20658;-63
2023/08/12 05:54:25;;;;;;;4.07;3.78;;;;;;;;;;5117484;28;20226;-63
2023/08/12 05:56:53;;;;;;;4.28;3.50;;;;;;;;;;5118018;28;20207;-63
2023/08/12 05:59:22;;;;;;;3.95;3.65;;;;;;;;;;5117784;28;20203;-63
2023/08/12 06:01:49;;;;;;;4.10;3.80;;;;;;;;;;5117957;28;20634;-62
2023/08/12 06:04:17;;;;;;;4.45;4.05;;;;;;;;;;5117886;28;20237;-62
2023/08/12 06:06:44;;;;;;;4.03;3.72;;;;;;;;;;5117723;28;20496;-62
2023/08/12 06:09:11;;;;;;;3.85;3.35;;;;;;;;;;5117892;28;20238;-62
2023/08/12 06:11:39;;;;;;;4.45;3.80;;;;;;;;;;5117240;28;20249;-62
2023/08/12 06:14:06;;;;;;;4.10;3.72;;;;;;;;;;5117823;28;20302;-62
2023/08/12 06:16:35;;;;;;;4.10;3.80;;;;;;;;;;5117521;28;20544;-62
2023/08/12 06:19:02;;;;;;;3.85;3.63;;;;;;;;;;5117360;28;20511;-63
2023/08/12 06:21:30;;;;;;;4.47;3.90;;;;;;;;;;5117992;28;20245;-63
2023/08/12 06:23:57;;;;;;;4.35;4.00;;;;;;;;;;5117125;28;20203;-63
2023/08/12 06:26:25;;;;;;;4.47;4.10;;;;;;;;;;5117470;28;20229;-62
2023/08/12 06:28:52;;;;;;;4.30;4.00;;;;;;;;;;5116830;28;20203;-62
2023/08/12 06:31:20;;;;;;;4.45;4.15;;;;;;;;;;5118083;28;20294;-63
2023/08/12 06:33:48;;;;;;;4.70;4.30;;;;;;;;;;5117070;28;20492;-63
2023/08/12 06:36:16;;;;;;;4.57;4.20;;;;;;;;;;5117111;28;20198;-62
2023/08/12 06:38:43;;;;;;;4.38;3.70;;;;;;;;;;5117424;28;20286;-63
2023/08/12 06:41:11;;;;;;;4.40;4.00;;;;;;;;;;5117243;28;20298;-63
2023/08/12 06:43:38;;;;;;;4.35;3.78;;;;;;;;;;5117178;28;20209;-63
2023/08/12 06:46:05;;;;;;;3.75;3.45;;;;;;;;;;5117725;28;20236;-63
2023/08/12 06:48:33;;;;;;;3.90;3.50;;;;;;;;;;5116711;28;20230;-63
2023/08/12 06:51:09;;;;;;;3.83;3.45;;;;;;;;;;5116892;28;20209;-63
2023/08/12 06:53:37;;;;;;;3.83;3.53;;;;;;;;;;5120668;28;20254;-63
2023/08/12 06:56:05;;;;;;;4.05;3.70;;;;;;;;;;5120446;28;20199;-63
2023/08/12 06:58:32;;;;;;;3.85;3.55;;;;;;;;;;5120254;28;20301;-63
2023/08/12 07:01:00;;;;;;;3.92;3.63;;;;;;;;;;5120709;28;20213;-63
2023/08/12 07:03:27;;;;;;;3.95;3.65;;;;;;;;;;5120758;28;20234;-63
2023/08/12 07:05:55;;;;;;;3.80;3.50;;;;;;;;;;5120308;28;20226;-63
2023/08/12 07:08:24;;;;;;;3.65;3.35;;;;;;;;;;5120413;28;20217;-63
2023/08/12 07:10:51;;;;;;;4.00;3.70;;;;;;;;;;5120137;28;20640;-63
2023/08/12 07:13:18;;;;;;;3.80;3.50;;;;;;;;;;5120492;28;20211;-63
2023/08/12 07:15:46;;;;;;;3.50;3.20;;;;;;;;;;5120559;28;20209;-63
2023/08/12 07:18:13;;;;;;;4.40;4.03;;;;;;;;;;5120315;28;20206;-63
2023/08/12 07:20:40;;;;;;;4.00;3.60;;;;;;;;;;5120108;28;20661;-63
2023/08/12 07:23:08;;;;;;;3.78;3.47;;;;;;;;;;5119371;28;20298;-63
2023/08/12 07:25:37;;;;;;;3.80;3.50;;;;;;;;;;5120220;28;20227;-63
2023/08/12 07:28:05;;;;;;;3.63;3.33;;;;;;;;;;5120184;28;20207;-63
2023/08/12 07:30:32;;;;;;;4.00;3.40;;;;;;;;;;5119558;28;20225;-63
2023/08/12 07:33:00;;;;;;;3.55;3.17;;;;;;;;;;5119882;28;20293;-63
2023/08/12 07:35:27;;;;;;;3.53;3.33;;;;;;;;;;5119299;28;20207;-63
2023/08/12 07:37:55;;;;;;;4.82;3.40;;;;;;;;;;5119292;28;20235;-63
2023/08/12 07:40:22;;;;;;;4.00;3.60;;;;;;;;;;5120076;28;20779;-63
2023/08/12 07:42:51;;;;;;;3.80;3.50;;;;;;;;;;5118881;28;20496;-63
2023/08/12 07:45:18;;;;;;;3.53;3.22;;;;;;;;;;5119612;28;20321;-63
2023/08/12 07:47:46;;;;;;;3.80;3.50;;;;;;;;;;5119866;28;20625;-63
2023/08/12 07:50:13;;;;;;;3.65;3.33;;;;;;;;;;5119254;28;20250;-63
2023/08/12 07:52:41;;;;;;;3.70;3.42;;;;;;;;;;5119293;28;20758;-63
2023/08/12 07:55:09;;;;;;;3.88;3.55;;;;;;;;;;5119081;28;20441;-63
2023/08/12 07:57:36;;;;;;;3.85;3.55;;;;;;;;;;5119166;28;20199;-63
2023/08/12 08:00:07;;;;;;;3.92;3.55;;;;;;;;;;5119717;28;20318;-63
2023/08/12 08:02:35;;;;;;;3.67;3.38;;;;;;;;;;5116868;28;20530;-62
2023/08/12 08:05:02;;;;;;;3.63;3.33;;;;;;;;;;5118905;28;20501;-63
2023/08/12 08:07:30;;;;;;;3.60;3.30;;;;;;;;;;5119165;28;20241;-63
2023/08/12 08:09:57;;;;;;;4.38;3.13;;;;;;;;;;5118436;28;20226;-63
2023/08/12 08:12:24;;;;;;;3.70;3.28;;;;;;;;;;5117762;28;20203;-63
2023/08/12 08:14:52;;;;;;;3.53;3.25;;;;;;;;;;5118506;28;20293;-63
2023/08/12 08:17:21;;;;;;;3.00;2.80;;;;;;;;;;5118834;28;20205;-62
2023/08/12 08:19:48;;;;;;;3.42;3.22;;;;;;;;;;5118415;28;20214;-63
2023/08/12 08:22:16;;;;;;;3.42;3.13;;;;;;;;;;5118559;28;20238;-63
2023/08/12 08:24:43;;;;;;;3.00;2.80;;;;;;;;;;5118778;28;20486;-63
2023/08/12 08:27:11;;;;;;;3.42;3.17;;;;;;;;;;5118465;28;20227;-63
2023/08/12 08:29:38;;;;;;;2.97;2.78;;;;;;;;;;5117871;28;20203;-63
2023/08/12 08:32:06;;;;;;;3.08;2.80;;;;;;;;;;5117917;28;20199;-63
2023/08/12 08:34:35;;;;;;;3.40;3.17;;;;;;;;;;5118916;28;20207;-63
2023/08/12 08:37:02;;;;;;;4.25;2.90;;;;;;;;;;5118447;28;20248;-63
2023/08/12 08:39:30;;;;;;;3.42;3.13;;;;;;;;;;5118739;28;20213;-63
2023/08/12 08:41:58;;;;;;;4.25;2.83;;;;;;;;;;5118380;28;20225;-63
2023/08/12 08:44:25;;;;;;;3.60;2.83;;;;;;;;;;5117810;28;20310;-63
2023/08/12 08:46:54;;;;;;;3.20;3.00;;;;;;;;;;5118200;28;20269;-63
2023/08/12 08:49:21;;;;;;;3.50;3.17;;;;;;;;;;5117390;28;20210;-63
2023/08/12 08:51:51;;;;;;;3.10;2.90;;;;;;;;;;5117434;28;20250;-63
2023/08/12 08:54:19;;;;;;;3.05;2.85;;;;;;;;;;5117039;28;20573;-62
2023/08/12 08:56:47;;;;;;;3.30;3.10;;;;;;;;;;5117309;28;20231;-63
2023/08/12 08:59:14;;;;;;;3.25;3.03;;;;;;;;;;5117448;28;20214;-63
2023/08/12 09:01:42;;;;;;;2.78;2.58;;;;;;;;;;5116932;28;20194;-63
2023/08/12 09:04:10;;;;;;;3.05;2.85;;;;;;;;;;5117020;28;20211;-63
2023/08/12 09:06:38;;;;;;;3.00;2.80;;;;;;;;;;5117499;28;20227;-63
2023/08/12 09:09:10;;;;;;;3.60;3.30;;;;;;;;;;5117693;28;20606;-63
2023/08/12 09:11:40;;;;;;;3.33;3.10;;;;;;;;;;5116751;28;20210;-63
2023/08/12 09:14:08;;;;;;;3.13;2.90;;;;;;;;;;5116580;28;20203;-63
2023/08/12 09:16:35;;;;;;;3.38;3.13;;;;;;;;;;5116911;28;20191;-63
2023/08/12 09:19:03;;;;;;;3.30;3.10;;;;;;;;;;5116836;28;20746;-63
2023/08/12 09:21:30;;;;;;;3.20;3.00;;;;;;;;;;5116888;28;20239;-63
2023/08/12 09:23:58;;;;;;;3.35;3.10;;;;;;;;;;5117174;28;20205;-63
2023/08/12 09:26:27;;;;;;;3.28;2.97;;;;;;;;;;5116916;28;20314;-63
2023/08/12 09:28:54;;;;;;;3.03;2.83;;;;;;;;;;5116016;28;20213;-63
2023/08/12 09:31:25;;;;;;;3.05;2.75;;;;;;;;;;5115771;28;20234;-63
2023/08/12 09:33:53;;;;;;;3.53;3.22;;;;;;;;;;5117460;28;20195;-63
2023/08/12 09:36:20;;;;;;;3.40;3.15;;;;;;;;;;5117052;28;20199;-63
2023/08/12 09:38:48;;;;;;;3.25;2.95;;;;;;;;;;5116910;28;20206;-63
2023/08/12 09:41:15;;;;;;;3.80;3.50;;;;;;;;;;5116314;28;20203;-62
2023/08/12 09:43:44;;;;;;;3.45;3.20;;;;;;;;;;5117169;28;20293;-63
2023/08/12 09:46:14;;;;;;;3.50;3.30;;;;;;;;;;5116959;28;20326;-63
2023/08/12 09:48:41;;;;;;;3.40;3.10;;;;;;;;;;5116037;28;20214;-63
2023/08/12 09:51:09;;;;;;;3.63;3.33;;;;;;;;;;5115534;28;20297;-63
2023/08/12 09:53:37;;;;;;;3.45;3.20;;;;;;;;;;5116604;28;20308;-63
2023/08/12 09:56:08;;;;;;;4.40;3.50;;;;;;;;;;5116319;28;20203;-63
2023/08/12 09:58:37;;;;;;;3.13;2.92;;;;;;;;;;5116482;28;20239;-63
2023/08/12 10:01:07;;;;;;;4.00;3.63;;;;;;;;;;5116022;28;20486;-63
2023/08/12 10:03:35;;;;;;;3.67;3.40;;;;;;;;;;5116574;28;20203;-63
2023/08/12 10:06:03;;;;;;;3.10;2.90;;;;;;;;;;5116466;28;20223;-63
2023/08/12 10:08:30;;;;;;;3.50;3.30;;;;;;;;;;5116181;28;20222;-63
2023/08/12 10:10:58;;;;;;;3.10;2.90;;;;;;;;;;5116120;28;20242;-63
2023/08/12 10:13:25;;;;;;;3.20;3.00;;;;;;;;;;5115628;28;20591;-63
2023/08/12 10:15:53;;;;;;;3.53;3.22;;;;;;;;;;5115691;28;20249;-63
2023/08/12 10:18:21;;;;;;;3.22;3.00;;;;;;;;;;5116378;28;20230;-63
2023/08/12 10:20:50;;;;;;;3.67;3.38;;;;;;;;;;5116368;28;20294;-63
2023/08/12 10:23:19;;;;;;;3.50;3.22;;;;;;;;;;5115472;28;20249;-63
2023/08/12 10:25:47;;;;;;;2.85;2.65;;;;;;;;;;5116371;28;20649;-63
2023/08/12 10:28:14;;;;;;;3.63;3.33;;;;;;;;;;5119641;28;20206;-63
2023/08/12 10:30:42;;;;;;;3.50;3.17;;;;;;;;;;5119380;28;20206;-63
2023/08/12 10:33:10;;;;;;;3.40;3.10;;;;;;;;;;5119882;28;20211;-63
2023/08/12 10:35:49;;;;;;;3.28;3.08;;;;;;;;;;5119883;28;20293;-63
2023/08/12 10:38:18;;;;;;;3.30;3.10;;;;;;;;;;5120047;28;20234;-63
2023/08/12 10:40:46;;;;;;;3.40;2.97;;;;;;;;;;5119800;28;20202;-63
2023/08/12 10:43:14;;;;;;;3.05;2.85;;;;;;;;;;5120515;28;20207;-63
2023/08/12 10:45:45;;;;;;;3.25;2.95;;;;;;;;;;5119818;28;20238;-63
2023/08/12 10:48:18;;;;;;;3.08;2.88;;;;;;;;;;5119967;28;20234;-63
2023/08/12 10:50:46;;;;;;;3.10;2.90;;;;;;;;;;5120078;28;20203;-63
2023/08/12 10:53:29;;;;;;;2.88;2.67;;;;;;;;;;5119589;28;20235;-63
2023/08/12 10:55:57;;;;;;;3.10;2.90;;;;;;;;;;5119621;28;20305;-63
2023/08/12 10:58:32;;;;;;;2.70;2.50;;;;;;;;;;5119629;28;20199;-63
2023/08/12 11:00:59;;;;;;;3.28;2.60;;;;;;;;;;5119429;28;20476;-63
2023/08/12 11:03:27;;;;;;;2.80;2.60;;;;;;;;;;5120000;28;20792;-63
2023/08/12 11:05:56;;;;;;;3.00;2.75;;;;;;;;;;5119699;28;20297;-63
2023/08/12 11:08:29;;;;;;;5.40;2.78;;;;;;;;;;5119935;28;20586;-63
2023/08/12 11:10:58;;;;;;;2.70;2.50;;;;;;;;;;5118629;28;20206;-63
2023/08/12 11:13:28;;;;;;;2.65;2.45;;;;;;;;;;5118321;28;20215;-63
2023/08/12 11:16:07;;;;;;;2.80;2.60;;;;;;;;;;5118322;28;20195;-63
2023/08/12 11:18:34;;;;;;;2.63;2.42;;;;;;;;;;5118926;28;20407;-63
2023/08/12 11:21:02;;;;;;;2.60;2.40;;;;;;;;;;5118742;28;20209;-63
2023/08/12 11:23:31;;;;;;;2.45;2.25;;;;;;;;;;5118884;28;20199;-63
2023/08/12 11:25:59;;;;;;;2.47;2.28;;;;;;;;;;5118819;28;20632;-63
2023/08/12 11:28:27;;;;;;;2.30;2.20;;;;;;;;;;5119375;28;20710;-63
2023/08/12 11:30:54;;;;;;;2.65;2.40;;;;;;;;;;5118724;28;20242;-63
2023/08/12 11:33:22;;;;;;;3.15;2.45;;;;;;;;;;5118534;28;20245;-63
2023/08/12 11:35:49;;;;;;;2.22;2.03;;;;;;;;;;5118640;28;20293;-63
2023/08/12 11:38:17;;;;;;;2.50;2.30;;;;;;;;;;5116898;28;20198;-63
2023/08/12 11:40:46;;;;;;;2.13;1.98;;;;;;;;;;5118380;28;20210;-63
2023/08/12 11:43:14;;;;;;;2.42;2.22;;;;;;;;;;5118544;28;20210;-63
2023/08/12 11:45:43;;;;;;;2.22;2.03;;;;;;;;;;5118287;28;20598;-63
2023/08/12 11:48:11;;;;;;;2.13;2.00;;;;;;;;;;5117863;28;20317;-63
2023/08/12 11:50:38;;;;;;;2.22;2.03;;;;;;;;;;5116938;28;20230;-63
2023/08/12 11:53:06;;;;;;;2.40;2.20;;;;;;;;;;5117891;28;20325;-63
2023/08/12 11:55:33;;;;;;;2.20;2.00;;;;;;;;;;5118315;28;20285;-63
2023/08/12 11:58:04;;;;;;;2.20;2.00;;;;;;;;;;5117812;28;20546;-63
2023/08/12 12:00:31;;;;;;;3.22;2.20;;;;;;;;;;5118032;28;20203;-63
2023/08/12 12:02:59;;;;;;;2.25;2.05;;;;;;;;;;5117632;28;20344;-63
2023/08/12 12:05:29;;;;;;;2.17;2.00;;;;;;;;;;5117949;28;20306;-63
2023/08/12 12:07:56;;;;;;;2.72;2.10;;;;;;;;;;5118374;28;20313;-63
2023/08/12 12:10:28;;;;;;;2.95;2.67;;;;;;;;;;5118624;28;20207;-63
2023/08/12 12:12:56;;;;;;;3.45;2.05;;;;;;;;;;5117702;28;20440;-63
2023/08/12 12:15:25;;;;;;;2.38;2.10;;;;;;;;;;5117442;28;20306;-63
2023/08/12 12:17:53;;;;;;;2.22;2.05;;;;;;;;;;5117728;28;20209;-63
2023/08/12 12:20:21;;;;;;;2.60;2.10;;;;;;;;;;5117731;28;20293;-63
2023/08/12 12:22:49;;;;;;;2.65;2.45;;;;;;;;;;5117949;28;20211;-63
2023/08/12 12:25:18;;;;;;;2.15;2.05;;;;;;;;;;5117178;28;20246;-63
2023/08/12 12:27:47;;;;;;;2.22;2.10;;;;;;;;;;5117910;28;20230;-63
2023/08/12 12:30:15;;;;;;;3.45;2.38;;;;;;;;;;5117209;28;20293;-63
2023/08/12 12:32:44;;;;;;;2.30;2.13;;;;;;;;;;5117039;28;20515;-63
2023/08/12 12:35:12;;;;;;;2.63;2.40;;;;;;;;;;5117118;28;20705;-63
2023/08/12 12:37:40;;;;;;;3.22;2.50;;;;;;;;;;5117256;28;20681;-63
2023/08/12 12:40:09;;;;;;;4.63;2.55;;;;;;;;;;5116511;28;20240;-63
2023/08/12 12:42:38;;;;;;;3.15;2.47;;;;;;;;;;5117220;28;20242;-63
2023/08/12 12:45:06;;;;;;;2.63;2.42;;;;;;;;;;5116680;28;20280;-63
2023/08/12 12:47:33;;;;;;;2.20;2.10;;;;;;;;;;5116162;28;20349;-63
2023/08/12 12:50:02;;;;;;;2.58;2.40;;;;;;;;;;5116135;28;20578;-63
2023/08/12 12:52:30;;;;;;;2.50;2.30;;;;;;;;;;5115630;28;20330;-63
2023/08/12 12:54:58;;;;;;;2.40;2.22;;;;;;;;;;5116324;28;20641;-63
2023/08/12 12:57:26;;;;;;;2.50;2.30;;;;;;;;;;5117218;28;20723;-62
2023/08/12 12:59:53;;;;;;;2.72;2.53;;;;;;;;;;5116687;28;20511;-63
2023/08/12 13:02:21;;;;;;;2.78;2.58;;;;;;;;;;5116209;28;20238;-62
2023/08/12 13:04:49;;;;;;;2.63;2.40;;;;;;;;;;5115952;28;20294;-62
2023/08/12 13:07:18;;;;;;;3.10;2.83;;;;;;;;;;5116989;28;20258;-63
2023/08/12 13:09:45;;;;;;;2.90;2.70;;;;;;;;;;5115736;28;20302;-63
2023/08/12 13:12:13;;;;;;;3.45;2.40;;;;;;;;;;5114645;28;20282;-63
2023/08/12 13:14:40;;;;;;;2.85;2.65;;;;;;;;;;5100872;28;20334;-63
2023/08/12 13:17:08;;;;;;;2.90;2.70;;;;;;;;;;5109656;28;20292;-63
2023/08/12 13:19:36;;;;;;;2.75;2.50;;;;;;;;;;5116167;28;20209;-63
2023/08/12 13:22:03;;;;;;;3.10;2.80;;;;;;;;;;5116667;28;20588;-63
2023/08/12 13:24:33;;;;;;;2.90;2.70;;;;;;;;;;5116280;28;20237;-63
2023/08/12 13:27:00;;;;;;;2.70;2.50;;;;;;;;;;5116042;28;20676;-63
2023/08/12 13:29:30;;;;;;;2.80;2.60;;;;;;;;;;5115947;28;20203;-63
2023/08/12 13:31:57;;;;;;;2.75;2.55;;;;;;;;;;5116986;28;20210;-63
2023/08/12 13:34:25;;;;;;;2.80;2.60;;;;;;;;;;5116733;28;20666;-63
2023/08/12 13:36:52;;;;;;;2.60;2.40;;;;;;;;;;5116744;28;20246;-63
2023/08/12 13:39:20;;;;;;;2.88;2.67;;;;;;;;;;5116184;28;20203;-63
2023/08/12 13:41:49;;;;;;;3.00;2.80;;;;;;;;;;5115524;28;20229;-63
2023/08/12 13:44:16;;;;;;;3.00;2.80;;;;;;;;;;5114860;28;20309;-63
2023/08/12 13:46:44;;;;;;;3.08;2.75;;;;;;;;;;5115314;28;20302;-63
2023/08/12 13:49:12;;;;;;;2.90;2.60;;;;;;;;;;5116289;28;20210;-63
2023/08/12 13:51:39;;;;;;;3.60;3.20;;;;;;;;;;5115793;28;20217;-63
2023/08/12 13:54:06;;;;;;;3.45;3.10;;;;;;;;;;5115782;28;20203;-63
2023/08/12 13:56:34;;;;;;;3.28;2.92;;;;;;;;;;5116086;28;20203;-63
2023/08/12 13:59:03;;;;;;;3.22;3.03;;;;;;;;;;5115969;28;20207;-63
2023/08/12 14:01:31;;;;;;;3.35;3.10;;;;;;;;;;5115476;28;20199;-63
2023/08/12 14:03:58;;;;;;;3.80;3.40;;;;;;;;;;5115840;28;20226;-63
2023/08/12 14:06:26;;;;;;;3.60;3.30;;;;;;;;;;5116370;28;20285;-63
2023/08/12 14:08:53;;;;;;;3.60;3.30;;;;;;;;;;5115564;28;20221;-63
2023/08/12 14:11:20;;;;;;;3.45;3.15;;;;;;;;;;5115139;28;20221;-63
2023/08/12 14:13:48;;;;;;;3.90;3.60;;;;;;;;;;5115041;28;20203;-63
2023/08/12 14:16:17;;;;;;;3.40;3.10;;;;;;;;;;5115080;28;20213;-63
2023/08/12 14:18:44;;;;;;;3.67;3.40;;;;;;;;;;5115140;28;20199;-63
2023/08/12 14:21:12;;;;;;;3.25;3.00;;;;;;;;;;5114986;28;20281;-63
2023/08/12 14:23:40;;;;;;;4.50;3.25;;;;;;;;;;5116103;28;20213;-63
2023/08/12 14:26:07;;;;;;;4.10;3.25;;;;;;;;;;5115253;28;20621;-63
2023/08/12 14:28:34;;;;;;;3.10;2.90;;;;;;;;;;5116123;28;20321;-63
2023/08/12 14:31:02;;;;;;;3.30;2.90;;;;;;;;;;5115112;28;20222;-63
2023/08/12 14:33:31;;;;;;;3.10;2.90;;;;;;;;;;5115168;28;20195;-63
2023/08/12 14:35:59;;;;;;;3.42;3.17;;;;;;;;;;5115385;28;20227;-63
2023/08/12 14:38:26;;;;;;;5.88;3.22;;;;;;;;;;5114628;28;20195;-63
2023/08/12 14:40:54;;;;;;;3.35;2.97;;;;;;;;;;5114737;28;20238;-63
2023/08/12 14:43:21;;;;;;;5.07;2.75;;;;;;;;;;5114636;28;20486;-63
2023/08/12 14:45:49;;;;;;;3.42;1.85;;;;;;;;;;5115174;28;20289;-63
2023/08/12 14:48:17;;;;;;;4.95;1.40;;;;;;;;;;5114378;28;20235;-64